sensor_id;sensor_type;location;lat;lon;timestamp;pressure;altitude;pressure_sealevel;temperature;humidity
7940;BME280;4015;48.888;9.226;2023-03-14T00:00:10;157710.78;;;9.82;100.00
7940;BME280;4015;48.888;9.226;2023-03-14T00:02:38;157708.25;;;9.81;100.00
7940;BME280;4015;48.888;9.226;2023-03-14T00:05:04;157706.91;;;9.80;100.00
7940;BME280;4015;48.888;9.226;2023-03-14T00:07:35;157715.88;;;9.84;100.00
7940;BME280;4015;48.888;9.226;2023-03-14T00:10:07;157712.06;;;9.82;100.00
7940;BME280;4015;48.888;9.226;2023-03-14T00:12:32;157704.38;;;9.79;100.00
7940;BME280;4015;48.888;9.226;2023-03-14T00:14:58;157704.38;;;9.79;100.00
7940;BME280;4015;48.888;9.226;2023-03-14T00:17:26;157710.78;;;9.82;100.00
7940;BME280;4015;48.888;9.226;2023-03-14T00:19:51;157714.59;;;9.83;100.00
7940;BME280;4015;48.888;9.226;2023-03-14T00:22:19;157712.06;;;9.82;100.00
7940;BME280;4015;48.888;9.226;2023-03-14T00:24:44;157714.59;;;9.83;100.00
7940;BME280;4015;48.888;9.226;2023-03-14T00:27:09;157709.50;;;9.81;100.00
7940;BME280;4015;48.888;9.226;2023-03-14T00:29:35;157718.41;;;9.85;100.00
7940;BME280;4015;48.888;9.226;2023-03-14T00:32:00;157719.69;;;9.85;100.00
7940;BME280;4015;48.888;9.226;2023-03-14T00:34:29;157717.16;;;9.84;100.00
7940;BME280;4015;48.888;9.226;2023-03-14T00:36:54;157719.69;;;9.85;100.00
7940;BME280;4015;48.888;9.226;2023-03-14T00:39:20;157726.09;;;9.88;100.00
7940;BME280;4015;48.888;9.226;2023-03-14T00:41:45;157729.94;;;9.89;100.00
7940;BME280;4015;48.888;9.226;2023-03-14T00:44:10;157727.38;;;9.88;100.00
7940;BME280;4015;48.888;9.226;2023-03-14T00:46:36;157733.75;;;9.91;100.00
7940;BME280;4015;48.888;9.226;2023-03-14T00:49:01;157751.63;;;9.98;100.00
7940;BME280;4015;48.888;9.226;2023-03-14T00:51:26;157746.53;;;9.96;100.00
7940;BME280;4015;48.888;9.226;2023-03-14T00:53:52;157769.47;;;10.05;100.00
7940;BME280;4015;48.888;9.226;2023-03-14T00:56:17;157768.22;;;10.05;100.00
7940;BME280;4015;48.888;9.226;2023-03-14T00:58:42;157774.63;;;10.07;100.00
7940;BME280;4015;48.888;9.226;2023-03-14T01:01:17;157777.16;;;10.08;100.00
7940;BME280;4015;48.888;9.226;2023-03-14T01:03:43;157763.13;;;10.03;100.00
7940;BME280;4015;48.888;9.226;2023-03-14T01:06:17;157766.94;;;10.04;100.00
7940;BME280;4015;48.888;9.226;2023-03-14T01:08:43;157752.88;;;9.98;100.00
7940;BME280;4015;48.888;9.226;2023-03-14T01:11:14;157746.53;;;9.96;100.00
7940;BME280;4015;48.888;9.226;2023-03-14T01:13:40;157786.09;;;10.12;100.00
7940;BME280;4015;48.888;9.226;2023-03-14T01:16:08;157792.50;;;10.14;100.00
7940;BME280;4015;48.888;9.226;2023-03-14T01:18:34;157789.94;;;10.13;100.00
7940;BME280;4015;48.888;9.226;2023-03-14T01:21:04;157800.13;;;10.17;100.00
7940;BME280;4015;48.888;9.226;2023-03-14T01:23:34;157819.38;;;10.25;99.57
7940;BME280;4015;48.888;9.226;2023-03-14T01:25:59;157824.47;;;10.27;98.94
7940;BME280;4015;48.888;9.226;2023-03-14T01:28:25;157830.84;;;10.30;99.25
7940;BME280;4015;48.888;9.226;2023-03-14T01:30:50;157807.81;;;10.20;100.00
7940;BME280;4015;48.888;9.226;2023-03-14T01:33:15;157795.03;;;10.15;100.00
7940;BME280;4015;48.888;9.226;2023-03-14T01:35:41;157793.78;;;10.15;100.00
7940;BME280;4015;48.888;9.226;2023-03-14T01:38:06;157796.31;;;10.16;100.00
7940;BME280;4015;48.888;9.226;2023-03-14T01:40:31;157806.53;;;10.20;100.00
7940;BME280;4015;48.888;9.226;2023-03-14T01:43:05;157810.38;;;10.21;99.64
7940;BME280;4015;48.888;9.226;2023-03-14T01:48:44;157809.09;;;10.21;98.32
7940;BME280;4015;48.888;9.226;2023-03-14T01:51:17;157792.50;;;10.14;98.57
7940;BME280;4015;48.888;9.226;2023-03-14T01:53:43;157773.34;;;10.07;98.55
7940;BME280;4015;48.888;9.226;2023-03-14T01:56:11;157779.72;;;10.09;98.09
7940;BME280;4015;48.888;9.226;2023-03-14T01:58:40;157791.22;;;10.14;97.76
7940;BME280;4015;48.888;9.226;2023-03-14T02:01:08;157781.00;;;10.10;98.06
7940;BME280;4015;48.888;9.226;2023-03-14T02:03:39;157804.00;;;10.19;97.27
7940;BME280;4015;48.888;9.226;2023-03-14T02:06:11;157797.59;;;10.16;96.88
7940;BME280;4015;48.888;9.226;2023-03-14T02:08:37;157800.13;;;10.17;96.88
7940;BME280;4015;48.888;9.226;2023-03-14T02:11:05;157793.78;;;10.15;96.08
7940;BME280;4015;48.888;9.226;2023-03-14T02:13:32;157818.09;;;10.24;94.16
7940;BME280;4015;48.888;9.226;2023-03-14T02:15:58;157841.06;;;10.34;93.20
7940;BME280;4015;48.888;9.226;2023-03-14T02:18:23;157809.09;;;10.21;93.16
7940;BME280;4015;48.888;9.226;2023-03-14T02:21:01;157823.19;;;10.26;92.48
7940;BME280;4015;48.888;9.226;2023-03-14T02:23:47;157834.69;;;10.31;91.05
7940;BME280;4015;48.888;9.226;2023-03-14T02:26:27;157851.31;;;10.38;90.79
7940;BME280;4015;48.888;9.226;2023-03-14T02:28:53;157841.06;;;10.34;90.72
7940;BME280;4015;48.888;9.226;2023-03-14T02:31:19;157830.84;;;10.30;90.55
7940;BME280;4015;48.888;9.226;2023-03-14T02:33:46;157852.56;;;10.38;90.79
7940;BME280;4015;48.888;9.226;2023-03-14T02:36:13;157837.25;;;10.32;90.64
7940;BME280;4015;48.888;9.226;2023-03-14T02:38:41;157839.78;;;10.33;91.06
7940;BME280;4015;48.888;9.226;2023-03-14T02:41:09;157830.84;;;10.30;91.07
7940;BME280;4015;48.888;9.226;2023-03-14T02:43:34;157821.94;;;10.26;91.58
7940;BME280;4015;48.888;9.226;2023-03-14T02:46:01;157795.03;;;10.15;92.07
7940;BME280;4015;48.888;9.226;2023-03-14T02:48:40;157802.72;;;10.18;92.24
7940;BME280;4015;48.888;9.226;2023-03-14T02:51:08;157810.38;;;10.21;92.71
7940;BME280;4015;48.888;9.226;2023-03-14T02:53:35;157809.09;;;10.21;92.23
7940;BME280;4015;48.888;9.226;2023-03-14T02:56:01;157819.38;;;10.25;91.77
7940;BME280;4015;48.888;9.226;2023-03-14T02:58:27;157809.09;;;10.21;91.69
7940;BME280;4015;48.888;9.226;2023-03-14T03:00:53;157810.38;;;10.21;91.73
7940;BME280;4015;48.888;9.226;2023-03-14T03:03:19;157801.41;;;10.18;91.85
7940;BME280;4015;48.888;9.226;2023-03-14T03:05:48;157797.59;;;10.16;91.54
7940;BME280;4015;48.888;9.226;2023-03-14T03:08:15;157809.09;;;10.21;92.00
7940;BME280;4015;48.888;9.226;2023-03-14T03:10:41;157805.28;;;10.19;91.32
7940;BME280;4015;48.888;9.226;2023-03-14T03:13:06;157806.53;;;10.20;90.44
7940;BME280;4015;48.888;9.226;2023-03-14T03:15:31;157791.22;;;10.14;91.22
7940;BME280;4015;48.888;9.226;2023-03-14T03:17:57;157782.25;;;10.10;91.17
7940;BME280;4015;48.888;9.226;2023-03-14T03:20:22;157779.72;;;10.09;90.93
7940;BME280;4015;48.888;9.226;2023-03-14T03:22:47;157801.41;;;10.18;89.50
7940;BME280;4015;48.888;9.226;2023-03-14T03:25:15;157796.31;;;10.16;89.71
7940;BME280;4015;48.888;9.226;2023-03-14T03:27:40;157797.59;;;10.16;89.46
7940;BME280;4015;48.888;9.226;2023-03-14T03:30:08;157800.13;;;10.17;89.60
7940;BME280;4015;48.888;9.226;2023-03-14T03:32:33;157783.53;;;10.11;89.51
7940;BME280;4015;48.888;9.226;2023-03-14T03:34:59;157784.81;;;10.11;89.37
7940;BME280;4015;48.888;9.226;2023-03-14T03:37:24;157783.53;;;10.11;89.02
7940;BME280;4015;48.888;9.226;2023-03-14T03:39:50;157789.94;;;10.13;88.58
7940;BME280;4015;48.888;9.226;2023-03-14T03:42:17;157783.53;;;10.11;87.82
7940;BME280;4015;48.888;9.226;2023-03-14T03:44:42;157787.41;;;10.12;87.87
7940;BME280;4015;48.888;9.226;2023-03-14T03:47:07;157778.44;;;10.09;88.01
7940;BME280;4015;48.888;9.226;2023-03-14T03:49:33;157777.16;;;10.08;88.23
7940;BME280;4015;48.888;9.226;2023-03-14T03:51:59;157775.91;;;10.08;86.84
7940;BME280;4015;48.888;9.226;2023-03-14T03:54:25;157774.63;;;10.07;86.89
7940;BME280;4015;48.888;9.226;2023-03-14T03:56:50;157766.94;;;10.04;86.92
7940;BME280;4015;48.888;9.226;2023-03-14T03:59:16;157766.94;;;10.04;86.43
7940;BME280;4015;48.888;9.226;2023-03-14T04:01:41;157756.75;;;10.00;86.60
7940;BME280;4015;48.888;9.226;2023-03-14T04:04:07;157751.63;;;9.98;86.95
7940;BME280;4015;48.888;9.226;2023-03-14T04:06:32;157735.03;;;9.91;86.51
7940;BME280;4015;48.888;9.226;2023-03-14T04:08:58;157740.16;;;9.93;86.10
7940;BME280;4015;48.888;9.226;2023-03-14T04:11:23;157737.56;;;9.92;86.08
7940;BME280;4015;48.888;9.226;2023-03-14T04:13:49;157733.75;;;9.91;85.31
7940;BME280;4015;48.888;9.226;2023-03-14T04:16:17;157736.28;;;9.92;84.89
7940;BME280;4015;48.888;9.226;2023-03-14T04:18:43;157751.63;;;9.98;85.02
7940;BME280;4015;48.888;9.226;2023-03-14T04:21:08;157736.28;;;9.92;84.94
7940;BME280;4015;48.888;9.226;2023-03-14T04:23:34;157746.53;;;9.96;84.60
7940;BME280;4015;48.888;9.226;2023-03-14T04:25:59;157720.97;;;9.86;84.66
7940;BME280;4015;48.888;9.226;2023-03-14T04:28:24;157720.97;;;9.86;84.89
7940;BME280;4015;48.888;9.226;2023-03-14T04:30:50;157717.16;;;9.84;84.82
7940;BME280;4015;48.888;9.226;2023-03-14T04:33:15;157708.25;;;9.81;84.62
7940;BME280;4015;48.888;9.226;2023-03-14T04:35:43;157690.31;;;9.73;84.64
7940;BME280;4015;48.888;9.226;2023-03-14T04:38:09;157682.69;;;9.70;85.06
7940;BME280;4015;48.888;9.226;2023-03-14T04:40:39;157677.59;;;9.68;84.76
7940;BME280;4015;48.888;9.226;2023-03-14T04:43:04;157704.38;;;9.79;83.98
7940;BME280;4015;48.888;9.226;2023-03-14T04:45:30;157708.25;;;9.81;83.84
7940;BME280;4015;48.888;9.226;2023-03-14T04:47:55;157700.56;;;9.78;83.98
7940;BME280;4015;48.888;9.226;2023-03-14T04:50:21;157685.22;;;9.71;83.77
7940;BME280;4015;48.888;9.226;2023-03-14T04:52:46;157686.50;;;9.72;83.85
7940;BME280;4015;48.888;9.226;2023-03-14T04:55:11;157713.34;;;9.83;83.62
7940;BME280;4015;48.888;9.226;2023-03-14T04:57:37;157722.25;;;9.86;82.51
7940;BME280;4015;48.888;9.226;2023-03-14T05:00:03;157705.66;;;9.80;83.88
7940;BME280;4015;48.888;9.226;2023-03-14T05:02:31;157677.59;;;9.68;83.63
7940;BME280;4015;48.888;9.226;2023-03-14T05:04:57;157657.13;;;9.60;84.21
7940;BME280;4015;48.888;9.226;2023-03-14T05:07:22;157667.38;;;9.64;83.54
7940;BME280;4015;48.888;9.226;2023-03-14T05:09:47;157678.88;;;9.69;83.86
7940;BME280;4015;48.888;9.226;2023-03-14T05:12:13;157682.69;;;9.70;83.03
7940;BME280;4015;48.888;9.226;2023-03-14T05:14:38;157667.38;;;9.64;83.35
7940;BME280;4015;48.888;9.226;2023-03-14T05:17:04;157657.13;;;9.60;83.58
7940;BME280;4015;48.888;9.226;2023-03-14T05:19:29;157653.31;;;9.59;83.94
7940;BME280;4015;48.888;9.226;2023-03-14T05:21:55;157636.72;;;9.52;84.34
7940;BME280;4015;48.888;9.226;2023-03-14T05:24:20;157620.13;;;9.45;84.31
7940;BME280;4015;48.888;9.226;2023-03-14T05:26:45;157608.63;;;9.41;85.05
7940;BME280;4015;48.888;9.226;2023-03-14T05:29:11;157609.91;;;9.41;85.26
7940;BME280;4015;48.888;9.226;2023-03-14T05:31:36;157639.28;;;9.53;83.72
7940;BME280;4015;48.888;9.226;2023-03-14T05:34:01;157611.19;;;9.42;84.52
7940;BME280;4015;48.888;9.226;2023-03-14T05:36:27;157615.03;;;9.43;84.19
7940;BME280;4015;48.888;9.226;2023-03-14T05:38:52;157616.31;;;9.44;84.25
7940;BME280;4015;48.888;9.226;2023-03-14T05:41:17;157592.03;;;9.34;84.75
7940;BME280;4015;48.888;9.226;2023-03-14T05:43:43;157581.88;;;9.30;85.46
7940;BME280;4015;48.888;9.226;2023-03-14T05:46:08;157578.00;;;9.29;84.87
7940;BME280;4015;48.888;9.226;2023-03-14T05:48:33;157607.34;;;9.40;84.02
7940;BME280;4015;48.888;9.226;2023-03-14T05:50:59;157618.88;;;9.45;84.17
7940;BME280;4015;48.888;9.226;2023-03-14T05:53:24;157599.72;;;9.37;84.32
7940;BME280;4015;48.888;9.226;2023-03-14T05:55:54;157606.09;;;9.40;84.17
7940;BME280;4015;48.888;9.226;2023-03-14T05:58:19;157611.19;;;9.42;84.37
7940;BME280;4015;48.888;9.226;2023-03-14T06:00:45;157634.19;;;9.51;83.35
7940;BME280;4015;48.888;9.226;2023-03-14T06:03:10;157639.28;;;9.53;83.76
7940;BME280;4015;48.888;9.226;2023-03-14T06:05:36;157659.69;;;9.61;83.61
7940;BME280;4015;48.888;9.226;2023-03-14T06:08:01;157669.91;;;9.65;83.20
7940;BME280;4015;48.888;9.226;2023-03-14T06:10:26;157673.72;;;9.67;83.07
7940;BME280;4015;48.888;9.226;2023-03-14T06:12:52;157681.41;;;9.70;82.92
7940;BME280;4015;48.888;9.226;2023-03-14T06:15:17;157673.72;;;9.67;82.75
7940;BME280;4015;48.888;9.226;2023-03-14T06:17:42;157685.22;;;9.71;83.02
7940;BME280;4015;48.888;9.226;2023-03-14T06:20:08;157709.50;;;9.81;81.59
7940;BME280;4015;48.888;9.226;2023-03-14T06:22:34;157729.94;;;9.89;81.36
7940;BME280;4015;48.888;9.226;2023-03-14T06:24:59;157731.19;;;9.90;81.99
7940;BME280;4015;48.888;9.226;2023-03-14T06:27:25;157728.66;;;9.89;81.62
7940;BME280;4015;48.888;9.226;2023-03-14T06:29:50;157746.53;;;9.96;81.49
7940;BME280;4015;48.888;9.226;2023-03-14T06:32:15;157742.69;;;9.94;81.29
7940;BME280;4015;48.888;9.226;2023-03-14T06:34:41;157710.78;;;9.82;82.11
7940;BME280;4015;48.888;9.226;2023-03-14T06:37:06;157750.34;;;9.97;80.68
7940;BME280;4015;48.888;9.226;2023-03-14T06:39:31;157773.34;;;10.07;80.31
7940;BME280;4015;48.888;9.226;2023-03-14T06:41:57;157779.72;;;10.09;80.51
7940;BME280;4015;48.888;9.226;2023-03-14T06:44:22;157766.94;;;10.04;81.10
7940;BME280;4015;48.888;9.226;2023-03-14T06:46:47;157792.50;;;10.14;78.76
7940;BME280;4015;48.888;9.226;2023-03-14T06:49:13;157810.38;;;10.21;80.21
7940;BME280;4015;48.888;9.226;2023-03-14T06:51:38;157887.06;;;10.52;79.04
7940;BME280;4015;48.888;9.226;2023-03-14T06:54:03;157980.31;;;10.89;77.76
7940;BME280;4015;48.888;9.226;2023-03-14T06:56:29;158008.44;;;11.00;77.38
7940;BME280;4015;48.888;9.226;2023-03-14T06:58:54;157990.50;;;10.93;77.76
7940;BME280;4015;48.888;9.226;2023-03-14T07:01:23;157954.75;;;10.79;78.30
7940;BME280;4015;48.888;9.226;2023-03-14T07:03:50;158014.81;;;11.03;77.44
7940;BME280;4015;48.888;9.226;2023-03-14T07:06:15;158362.56;;;12.41;71.67
7940;BME280;4015;48.888;9.226;2023-03-14T07:08:40;158289.63;;;12.12;72.38
7940;BME280;4015;48.888;9.226;2023-03-14T07:11:07;158157.94;;;11.60;74.32
7940;BME280;4015;48.888;9.226;2023-03-14T07:13:32;158156.66;;;11.59;74.61
7940;BME280;4015;48.888;9.226;2023-03-14T07:15:57;158464.91;;;12.82;71.11
7940;BME280;4015;48.888;9.226;2023-03-14T07:18:23;158789.97;;;14.12;66.04
7940;BME280;4015;48.888;9.226;2023-03-14T07:20:48;159155.03;;;15.57;63.48
7940;BME280;4015;48.888;9.226;2023-03-14T07:23:13;159353.72;;;16.36;60.53
7940;BME280;4015;48.888;9.226;2023-03-14T07:25:39;159108.88;;;15.38;62.42
7940;BME280;4015;48.888;9.226;2023-03-14T07:28:04;158847.59;;;14.35;63.70
7940;BME280;4015;48.888;9.226;2023-03-14T07:30:29;158725.97;;;13.86;66.09
7940;BME280;4015;48.888;9.226;2023-03-14T07:32:55;158928.31;;;14.67;65.73
7940;BME280;4015;48.888;9.226;2023-03-14T07:35:20;159296.03;;;16.13;60.78
7940;BME280;4015;48.888;9.226;2023-03-14T07:37:46;159266.56;;;16.01;59.51
7940;BME280;4015;48.888;9.226;2023-03-14T07:40:11;159074.31;;;15.25;62.23
7940;BME280;4015;48.888;9.226;2023-03-14T07:42:40;159010.25;;;14.99;63.27
7940;BME280;4015;48.888;9.226;2023-03-14T07:45:06;158983.34;;;14.89;62.63
7940;BME280;4015;48.888;9.226;2023-03-14T07:47:32;159067.91;;;15.22;61.95
7940;BME280;4015;48.888;9.226;2023-03-14T07:49:57;158942.41;;;14.72;63.38
7940;BME280;4015;48.888;9.226;2023-03-14T07:52:22;159121.72;;;15.44;63.00
7940;BME280;4015;48.888;9.226;2023-03-14T07:54:49;159376.78;;;16.45;59.45
7940;BME280;4015;48.888;9.226;2023-03-14T07:57:14;159287.09;;;16.09;61.24
7940;BME280;4015;48.888;9.226;2023-03-14T07:59:40;159587.16;;;17.29;57.50
7940;BME280;4015;48.888;9.226;2023-03-14T08:02:05;159420.38;;;16.62;58.07
7940;BME280;4015;48.888;9.226;2023-03-14T08:04:35;159208.91;;;15.78;60.60
7940;BME280;4015;48.888;9.226;2023-03-14T08:07:01;159294.75;;;16.12;61.10
7940;BME280;4015;48.888;9.226;2023-03-14T08:09:27;159558.94;;;17.17;58.31
7940;BME280;4015;48.888;9.226;2023-03-14T08:11:52;159778.34;;;18.04;55.90
7940;BME280;4015;48.888;9.226;2023-03-14T08:14:17;160046.66;;;19.11;54.29
7940;BME280;4015;48.888;9.226;2023-03-14T08:16:43;159994.00;;;18.90;53.97
7940;BME280;4015;48.888;9.226;2023-03-14T08:19:08;160098.00;;;19.31;52.64
7940;BME280;4015;48.888;9.226;2023-03-14T08:21:33;159934.94;;;18.67;52.42
7940;BME280;4015;48.888;9.226;2023-03-14T08:23:59;159733.44;;;17.87;54.53
7940;BME280;4015;48.888;9.226;2023-03-14T08:26:25;159941.38;;;18.69;54.94
7940;BME280;4015;48.888;9.226;2023-03-14T08:28:51;159897.69;;;18.52;53.05
7940;BME280;4015;48.888;9.226;2023-03-14T08:31:16;159553.78;;;17.15;55.97
7940;BME280;4015;48.888;9.226;2023-03-14T08:33:42;159587.16;;;17.29;55.85
7940;BME280;4015;48.888;9.226;2023-03-14T08:36:07;159816.84;;;18.20;53.53
7940;BME280;4015;48.888;9.226;2023-03-14T08:38:33;159682.09;;;17.66;54.93
7940;BME280;4015;48.888;9.226;2023-03-14T08:41:00;159521.72;;;17.03;57.82
7940;BME280;4015;48.888;9.226;2023-03-14T08:43:26;159487.09;;;16.89;58.28
7940;BME280;4015;48.888;9.226;2023-03-14T08:45:52;159343.47;;;16.32;58.54
7940;BME280;4015;48.888;9.226;2023-03-14T08:48:18;159192.25;;;15.72;59.17
7940;BME280;4015;48.888;9.226;2023-03-14T08:50:44;159090.97;;;15.31;57.91
7940;BME280;4015;48.888;9.226;2023-03-14T08:53:10;158888.59;;;14.51;61.14
7940;BME280;4015;48.888;9.226;2023-03-14T08:55:35;158998.72;;;14.95;62.17
7940;BME280;4015;48.888;9.226;2023-03-14T08:58:01;159099.94;;;15.35;59.01
7940;BME280;4015;48.888;9.226;2023-03-14T09:00:26;159289.66;;;16.10;58.52
7940;BME280;4015;48.888;9.226;2023-03-14T09:02:52;159102.50;;;15.36;59.78
7940;BME280;4015;48.888;9.226;2023-03-14T09:05:17;158905.22;;;14.57;61.42
7940;BME280;4015;48.888;9.226;2023-03-14T09:07:42;158773.31;;;14.05;63.82
7940;BME280;4015;48.888;9.226;2023-03-14T09:10:08;158738.75;;;13.91;64.32
7940;BME280;4015;48.888;9.226;2023-03-14T09:12:34;158700.34;;;13.76;66.18
7940;BME280;4015;48.888;9.226;2023-03-14T09:14:59;158621.00;;;13.44;65.35
7940;BME280;4015;48.888;9.226;2023-03-14T09:17:25;158656.88;;;13.59;66.41
7940;BME280;4015;48.888;9.226;2023-03-14T09:19:50;158546.75;;;13.15;66.90
7940;BME280;4015;48.888;9.226;2023-03-14T09:22:15;158484.06;;;12.90;68.07
7940;BME280;4015;48.888;9.226;2023-03-14T09:24:41;158542.88;;;13.13;70.04
7940;BME280;4015;48.888;9.226;2023-03-14T09:27:07;158560.88;;;13.20;69.36
7940;BME280;4015;48.888;9.226;2023-03-14T09:29:32;158650.44;;;13.56;69.64
7940;BME280;4015;48.888;9.226;2023-03-14T09:31:58;158573.66;;;13.26;70.46
7940;BME280;4015;48.888;9.226;2023-03-14T09:34:23;158578.78;;;13.28;71.48
7940;BME280;4015;48.888;9.226;2023-03-14T09:36:49;158603.09;;;13.37;70.85
7940;BME280;4015;48.888;9.226;2023-03-14T09:39:14;158654.31;;;13.58;68.54
7940;BME280;4015;48.888;9.226;2023-03-14T09:41:43;158877.09;;;14.46;66.74
7940;BME280;4015;48.888;9.226;2023-03-14T09:44:21;158815.59;;;14.22;66.83
7940;BME280;4015;48.888;9.226;2023-03-14T09:46:52;158743.88;;;13.93;66.95
7940;BME280;4015;48.888;9.226;2023-03-14T09:49:30;158590.28;;;13.32;68.86
7940;BME280;4015;48.888;9.226;2023-03-14T09:51:59;158495.56;;;12.94;70.51
7940;BME280;4015;48.888;9.226;2023-03-14T09:54:35;158545.50;;;13.14;68.99
7940;BME280;4015;48.888;9.226;2023-03-14T09:57:02;158475.09;;;12.86;69.78
7940;BME280;4015;48.888;9.226;2023-03-14T09:59:28;158577.53;;;13.27;69.41
7940;BME280;4015;48.888;9.226;2023-03-14T10:01:58;158618.44;;;13.43;69.39
7940;BME280;4015;48.888;9.226;2023-03-14T10:04:25;158541.63;;;13.13;68.29
7940;BME280;4015;48.888;9.226;2023-03-14T10:06:51;158710.59;;;13.80;66.33
7940;BME280;4015;48.888;9.226;2023-03-14T10:09:22;159128.16;;;15.46;62.81
7940;BME280;4015;48.888;9.226;2023-03-14T10:11:54;159258.88;;;15.98;61.10
7940;BME280;4015;48.888;9.226;2023-03-14T10:14:35;159315.25;;;16.21;60.09
7940;BME280;4015;48.888;9.226;2023-03-14T10:17:09;159712.88;;;17.78;58.08
7940;BME280;4015;48.888;9.226;2023-03-14T10:19:36;159718.03;;;17.81;56.37
7940;BME280;4015;48.888;9.226;2023-03-14T10:22:04;160081.31;;;19.25;53.95
7940;BME280;4015;48.888;9.226;2023-03-14T10:24:35;160072.31;;;19.21;53.72
7940;BME280;4015;48.888;9.226;2023-03-14T10:27:03;159922.09;;;18.62;52.33
7940;BME280;4015;48.888;9.226;2023-03-14T10:29:31;159820.66;;;18.21;55.22
7940;BME280;4015;48.888;9.226;2023-03-14T10:32:00;160022.25;;;19.01;52.90
7940;BME280;4015;48.888;9.226;2023-03-14T10:34:32;159800.16;;;18.13;53.84
7940;BME280;4015;48.888;9.226;2023-03-14T10:37:18;159280.66;;;16.07;58.42
7940;BME280;4015;48.888;9.226;2023-03-14T10:39:48;159442.22;;;16.71;60.22
7940;BME280;4015;48.888;9.226;2023-03-14T10:42:25;159608.94;;;17.37;56.76
7940;BME280;4015;48.888;9.226;2023-03-14T10:45:44;159330.63;;;16.27;59.83
7940;BME280;4015;48.888;9.226;2023-03-14T10:47:49;159123.00;;;15.44;61.64
7940;BME280;4015;48.888;9.226;2023-03-14T10:50:29;158957.75;;;14.78;63.02
7940;BME280;4015;48.888;9.226;2023-03-14T10:52:55;159038.44;;;15.10;63.06
7940;BME280;4015;48.888;9.226;2023-03-14T10:55:23;158943.66;;;14.73;62.51
7940;BME280;4015;48.888;9.226;2023-03-14T10:57:49;158786.13;;;14.10;65.59
7940;BME280;4015;48.888;9.226;2023-03-14T11:00:20;158699.06;;;13.75;65.88
7940;BME280;4015;48.888;9.226;2023-03-14T11:03:08;158615.88;;;13.42;66.36
7940;BME280;4015;48.888;9.226;2023-03-14T11:08:25;158498.16;;;12.95;68.54
7940;BME280;4015;48.888;9.226;2023-03-14T11:11:07;158489.16;;;12.92;69.28
7940;BME280;4015;48.888;9.226;2023-03-14T11:13:46;158471.28;;;12.85;71.34
7940;BME280;4015;48.888;9.226;2023-03-14T11:19:34;158414.97;;;12.62;74.11
7940;BME280;4015;48.888;9.226;2023-03-14T11:22:30;158429.03;;;12.68;73.30
7940;BME280;4015;48.888;9.226;2023-03-14T11:25:30;158370.25;;;12.45;75.11
7940;BME280;4015;48.888;9.226;2023-03-14T11:28:12;158367.66;;;12.43;74.87
7940;BME280;4015;48.888;9.226;2023-03-14T11:30:51;158322.94;;;12.26;75.60
7940;BME280;4015;48.888;9.226;2023-03-14T11:33:39;158308.84;;;12.20;77.79
7940;BME280;4015;48.888;9.226;2023-03-14T11:36:12;158274.31;;;12.06;79.16
7940;BME280;4015;48.888;9.226;2023-03-14T11:38:49;158264.09;;;12.02;80.71
7940;BME280;4015;48.888;9.226;2023-03-14T11:41:19;158210.38;;;11.81;79.00
7940;BME280;4015;48.888;9.226;2023-03-14T11:43:49;158198.84;;;11.76;78.21
7940;BME280;4015;48.888;9.226;2023-03-14T11:46:25;158198.84;;;11.76;77.48
7940;BME280;4015;48.888;9.226;2023-03-14T11:51:36;158282.00;;;12.09;75.97
7940;BME280;4015;48.888;9.226;2023-03-14T11:59:18;158241.06;;;11.93;82.01
7940;BME280;4015;48.888;9.226;2023-03-14T12:01:57;158196.25;;;11.75;78.90
7940;BME280;4015;48.888;9.226;2023-03-14T12:04:39;158119.59;;;11.45;80.25
7940;BME280;4015;48.888;9.226;2023-03-14T12:07:19;158095.31;;;11.35;81.84
7940;BME280;4015;48.888;9.226;2023-03-14T12:09:47;158053.13;;;11.18;82.51
7940;BME280;4015;48.888;9.226;2023-03-14T12:12:19;158042.94;;;11.14;81.37
7940;BME280;4015;48.888;9.226;2023-03-14T12:14:53;158059.53;;;11.21;83.54
7940;BME280;4015;48.888;9.226;2023-03-14T12:20:19;158118.34;;;11.44;83.61
7940;BME280;4015;48.888;9.226;2023-03-14T12:22:52;158164.31;;;11.62;83.16
7940;BME280;4015;48.888;9.226;2023-03-14T12:25:20;158210.38;;;11.81;83.35
7940;BME280;4015;48.888;9.226;2023-03-14T12:28:04;158196.25;;;11.75;82.01
7940;BME280;4015;48.888;9.226;2023-03-14T12:30:40;158193.72;;;11.74;81.46
7940;BME280;4015;48.888;9.226;2023-03-14T12:35:40;158142.59;;;11.54;82.30
7940;BME280;4015;48.888;9.226;2023-03-14T12:38:23;158156.66;;;11.59;79.85
7940;BME280;4015;48.888;9.226;2023-03-14T12:43:32;157927.91;;;10.68;77.13
7940;BME280;4015;48.888;9.226;2023-03-14T12:48:33;157947.09;;;10.76;74.10
7940;BME280;4015;48.888;9.226;2023-03-14T12:51:04;157927.91;;;10.68;73.40
7940;BME280;4015;48.888;9.226;2023-03-14T12:56:21;157820.66;;;10.25;71.45
7940;BME280;4015;48.888;9.226;2023-03-14T13:01:20;158752.84;;;13.97;59.00
7940;BME280;4015;48.888;9.226;2023-03-14T13:03:50;159005.16;;;14.97;55.60
7940;BME280;4015;48.888;9.226;2023-03-14T13:06:53;158882.19;;;14.48;54.05
7940;BME280;4015;48.888;9.226;2023-03-14T13:12:12;158848.88;;;14.35;53.66
7940;BME280;4015;48.888;9.226;2023-03-14T13:14:49;158778.41;;;14.07;51.70
7940;BME280;4015;48.888;9.226;2023-03-14T13:17:26;158760.50;;;14.00;51.40
7940;BME280;4015;48.888;9.226;2023-03-14T13:19:56;158628.69;;;13.47;52.73
7940;BME280;4015;48.888;9.226;2023-03-14T13:22:26;158641.50;;;13.53;53.01
7940;BME280;4015;48.888;9.226;2023-03-14T13:25:07;158436.75;;;12.71;54.55
7940;BME280;4015;48.888;9.226;2023-03-14T13:27:35;158412.41;;;12.61;54.30
7940;BME280;4015;48.888;9.226;2023-03-14T13:32:41;158684.97;;;13.70;51.92
7940;BME280;4015;48.888;9.226;2023-03-14T13:35:15;158619.72;;;13.44;51.41
7940;BME280;4015;48.888;9.226;2023-03-14T13:37:41;158555.69;;;13.18;53.34
7940;BME280;4015;48.888;9.226;2023-03-14T13:40:19;158533.97;;;13.10;51.27
7940;BME280;4015;48.888;9.226;2023-03-14T13:42:45;158470.00;;;12.84;50.06
7940;BME280;4015;48.888;9.226;2023-03-14T13:45:12;158233.41;;;11.90;50.33
7940;BME280;4015;48.888;9.226;2023-03-14T13:47:39;158168.19;;;11.64;50.80
7940;BME280;4015;48.888;9.226;2023-03-14T13:50:05;158073.59;;;11.26;53.89
7940;BME280;4015;48.888;9.226;2023-03-14T13:52:35;158059.53;;;11.21;52.33
7940;BME280;4015;48.888;9.226;2023-03-14T13:55:02;157994.38;;;10.95;52.90